sensor_id;sensor_type;location;lat;lon;timestamp;temperature;humidity
14008;DHT22;61651;45.508;12.232;2023-07-28T00:02:21;24.30;99.90
14008;DHT22;61651;45.508;12.232;2023-07-28T00:05:23;24.30;99.90
14008;DHT22;61651;45.508;12.232;2023-07-28T00:08:26;24.20;99.90
14008;DHT22;61651;45.508;12.232;2023-07-28T00:11:28;24.20;99.90
14008;DHT22;61651;45.508;12.232;2023-07-28T00:14:30;24.10;99.90
14008;DHT22;61651;45.508;12.232;2023-07-28T00:17:32;24.10;99.90
14008;DHT22;61651;45.508;12.232;2023-07-28T00:20:34;24.00;99.90
14008;DHT22;61651;45.508;12.232;2023-07-28T00:23:38;24.00;99.90
14008;DHT22;61651;45.508;12.232;2023-07-28T00:26:40;23.90;99.90
14008;DHT22;61651;45.508;12.232;2023-07-28T00:29:42;23.90;99.90
14008;DHT22;61651;45.508;12.232;2023-07-28T00:32:44;23.90;99.90
14008;DHT22;61651;45.508;12.232;2023-07-28T00:35:46;23.90;99.90
14008;DHT22;61651;45.508;12.232;2023-07-28T00:38:49;23.80;99.90
14008;DHT22;61651;45.508;12.232;2023-07-28T00:41:51;23.80;99.90
14008;DHT22;61651;45.508;12.232;2023-07-28T00:44:53;23.80;99.90
14008;DHT22;61651;45.508;12.232;2023-07-28T00:47:56;23.70;99.90
14008;DHT22;61651;45.508;12.232;2023-07-28T00:50:58;23.70;99.90
14008;DHT22;61651;45.508;12.232;2023-07-28T00:54:02;23.60;99.90
14008;DHT22;61651;45.508;12.232;2023-07-28T00:57:05;23.60;99.90
14008;DHT22;61651;45.508;12.232;2023-07-28T01:00:08;23.60;99.90
14008;DHT22;61651;45.508;12.232;2023-07-28T01:03:11;23.50;99.90
14008;DHT22;61651;45.508;12.232;2023-07-28T01:06:18;23.50;99.90
14008;DHT22;61651;45.508;12.232;2023-07-28T01:09:27;23.50;99.90
14008;DHT22;61651;45.508;12.232;2023-07-28T01:12:30;23.50;99.90
14008;DHT22;61651;45.508;12.232;2023-07-28T01:15:32;23.50;99.90
14008;DHT22;61651;45.508;12.232;2023-07-28T01:18:34;23.40;99.90
14008;DHT22;61651;45.508;12.232;2023-07-28T01:21:37;23.40;99.90
14008;DHT22;61651;45.508;12.232;2023-07-28T01:24:51;23.40;99.90
14008;DHT22;61651;45.508;12.232;2023-07-28T01:27:55;23.30;99.90
14008;DHT22;61651;45.508;12.232;2023-07-28T01:30:59;23.30;99.90
14008;DHT22;61651;45.508;12.232;2023-07-28T01:34:01;23.30;99.90
14008;DHT22;61651;45.508;12.232;2023-07-28T01:37:04;23.30;99.90
14008;DHT22;61651;45.508;12.232;2023-07-28T01:40:07;23.20;99.90
14008;DHT22;61651;45.508;12.232;2023-07-28T01:43:11;23.30;99.90
14008;DHT22;61651;45.508;12.232;2023-07-28T01:46:13;23.20;99.90
14008;DHT22;61651;45.508;12.232;2023-07-28T01:49:15;23.20;99.90
14008;DHT22;61651;45.508;12.232;2023-07-28T01:52:17;23.20;99.90
14008;DHT22;61651;45.508;12.232;2023-07-28T01:55:19;23.10;99.90
14008;DHT22;61651;45.508;12.232;2023-07-28T01:58:22;23.10;99.90
14008;DHT22;61651;45.508;12.232;2023-07-28T02:01:24;23.10;99.90
14008;DHT22;61651;45.508;12.232;2023-07-28T02:04:26;23.10;99.90
14008;DHT22;61651;45.508;12.232;2023-07-28T02:07:28;23.10;99.90
14008;DHT22;61651;45.508;12.232;2023-07-28T02:10:31;23.00;99.90
14008;DHT22;61651;45.508;12.232;2023-07-28T02:13:34;23.00;99.90
14008;DHT22;61651;45.508;12.232;2023-07-28T02:16:36;23.00;99.90
14008;DHT22;61651;45.508;12.232;2023-07-28T02:19:38;23.00;99.90
14008;DHT22;61651;45.508;12.232;2023-07-28T02:22:41;23.00;99.90
14008;DHT22;61651;45.508;12.232;2023-07-28T02:25:43;23.00;99.90
14008;DHT22;61651;45.508;12.232;2023-07-28T02:28:47;23.00;99.90
14008;DHT22;61651;45.508;12.232;2023-07-28T02:31:49;22.90;99.90
14008;DHT22;61651;45.508;12.232;2023-07-28T02:34:51;22.90;99.90
14008;DHT22;61651;45.508;12.232;2023-07-28T02:37:52;23.00;99.90
14008;DHT22;61651;45.508;12.232;2023-07-28T02:40:54;23.00;99.90
14008;DHT22;61651;45.508;12.232;2023-07-28T02:43:58;22.90;99.90
14008;DHT22;61651;45.508;12.232;2023-07-28T02:47:00;22.90;99.90
14008;DHT22;61651;45.508;12.232;2023-07-28T02:50:02;22.90;99.90
14008;DHT22;61651;45.508;12.232;2023-07-28T02:53:04;22.90;99.90
14008;DHT22;61651;45.508;12.232;2023-07-28T02:56:06;22.90;99.90
14008;DHT22;61651;45.508;12.232;2023-07-28T02:59:10;22.90;99.90
14008;DHT22;61651;45.508;12.232;2023-07-28T03:02:12;22.90;99.90
14008;DHT22;61651;45.508;12.232;2023-07-28T03:05:14;22.90;99.90
14008;DHT22;61651;45.508;12.232;2023-07-28T03:08:16;22.90;99.90
14008;DHT22;61651;45.508;12.232;2023-07-28T03:11:18;22.80;99.90
14008;DHT22;61651;45.508;12.232;2023-07-28T03:14:21;22.80;99.90
14008;DHT22;61651;45.508;12.232;2023-07-28T03:17:23;22.80;99.90
14008;DHT22;61651;45.508;12.232;2023-07-28T03:20:25;22.80;99.90
14008;DHT22;61651;45.508;12.232;2023-07-28T03:23:27;22.80;99.90
14008;DHT22;61651;45.508;12.232;2023-07-28T03:26:29;22.70;99.90
14008;DHT22;61651;45.508;12.232;2023-07-28T03:29:33;22.70;99.90
14008;DHT22;61651;45.508;12.232;2023-07-28T03:32:35;22.70;99.90
14008;DHT22;61651;45.508;12.232;2023-07-28T03:35:37;22.70;99.90
14008;DHT22;61651;45.508;12.232;2023-07-28T03:38:39;22.70;99.90
14008;DHT22;61651;45.508;12.232;2023-07-28T03:41:41;22.70;99.90
14008;DHT22;61651;45.508;12.232;2023-07-28T03:44:44;22.60;99.90
14008;DHT22;61651;45.508;12.232;2023-07-28T03:47:46;22.60;99.90
14008;DHT22;61651;45.508;12.232;2023-07-28T03:50:48;22.70;99.90
14008;DHT22;61651;45.508;12.232;2023-07-28T03:53:50;22.60;99.90
14008;DHT22;61651;45.508;12.232;2023-07-28T03:56:53;22.60;99.90
14008;DHT22;61651;45.508;12.232;2023-07-28T03:59:56;22.60;99.90
14008;DHT22;61651;45.508;12.232;2023-07-28T04:02:59;22.60;99.90
14008;DHT22;61651;45.508;12.232;2023-07-28T04:06:04;22.50;99.90
14008;DHT22;61651;45.508;12.232;2023-07-28T04:09:07;22.50;99.90
14008;DHT22;61651;45.508;12.232;2023-07-28T04:12:09;22.50;99.90
14008;DHT22;61651;45.508;12.232;2023-07-28T04:15:13;22.50;99.90
14008;DHT22;61651;45.508;12.232;2023-07-28T04:18:15;22.50;99.90
14008;DHT22;61651;45.508;12.232;2023-07-28T04:21:18;22.50;99.90
14008;DHT22;61651;45.508;12.232;2023-07-28T04:24:20;22.50;99.90
14008;DHT22;61651;45.508;12.232;2023-07-28T04:27:23;22.50;99.90
14008;DHT22;61651;45.508;12.232;2023-07-28T04:30:26;22.50;99.90
14008;DHT22;61651;45.508;12.232;2023-07-28T04:33:28;22.50;99.90
14008;DHT22;61651;45.508;12.232;2023-07-28T04:36:30;22.50;99.90
14008;DHT22;61651;45.508;12.232;2023-07-28T04:39:32;22.50;99.90
14008;DHT22;61651;45.508;12.232;2023-07-28T04:42:34;22.50;99.90
14008;DHT22;61651;45.508;12.232;2023-07-28T04:45:38;22.50;99.90
14008;DHT22;61651;45.508;12.232;2023-07-28T04:48:40;22.60;99.90
14008;DHT22;61651;45.508;12.232;2023-07-28T04:51:42;22.60;99.90
14008;DHT22;61651;45.508;12.232;2023-07-28T04:54:44;22.70;99.90
14008;DHT22;61651;45.508;12.232;2023-07-28T04:57:46;22.70;99.90
14008;DHT22;61651;45.508;12.232;2023-07-28T05:00:49;22.70;99.90
14008;DHT22;61651;45.508;12.232;2023-07-28T05:03:51;22.70;99.90
14008;DHT22;61651;45.508;12.232;2023-07-28T05:06:53;22.70;99.90
14008;DHT22;61651;45.508;12.232;2023-07-28T05:09:55;22.80;99.90
14008;DHT22;61651;45.508;12.232;2023-07-28T05:12:57;22.80;99.90
14008;DHT22;61651;45.508;12.232;2023-07-28T05:16:01;22.80;99.90
14008;DHT22;61651;45.508;12.232;2023-07-28T05:19:06;22.90;99.90
14008;DHT22;61651;45.508;12.232;2023-07-28T05:22:09;23.00;99.90
14008;DHT22;61651;45.508;12.232;2023-07-28T05:25:11;23.10;99.90
14008;DHT22;61651;45.508;12.232;2023-07-28T05:28:13;23.20;99.90
14008;DHT22;61651;45.508;12.232;2023-07-28T05:31:16;23.20;99.90
14008;DHT22;61651;45.508;12.232;2023-07-28T05:34:18;23.30;99.90
14008;DHT22;61651;45.508;12.232;2023-07-28T05:37:20;23.30;99.90
14008;DHT22;61651;45.508;12.232;2023-07-28T05:40:22;23.30;99.90
14008;DHT22;61651;45.508;12.232;2023-07-28T05:43:24;23.40;99.90
14008;DHT22;61651;45.508;12.232;2023-07-28T05:46:28;23.40;99.90
14008;DHT22;61651;45.508;12.232;2023-07-28T05:49:30;23.50;99.90
14008;DHT22;61651;45.508;12.232;2023-07-28T05:52:32;23.60;99.90
14008;DHT22;61651;45.508;12.232;2023-07-28T05:55:34;23.70;99.90
14008;DHT22;61651;45.508;12.232;2023-07-28T05:58:36;23.80;99.90
14008;DHT22;61651;45.508;12.232;2023-07-28T06:01:40;23.80;99.90
14008;DHT22;61651;45.508;12.232;2023-07-28T06:04:41;23.90;99.90
14008;DHT22;61651;45.508;12.232;2023-07-28T06:07:43;23.90;99.90
14008;DHT22;61651;45.508;12.232;2023-07-28T06:10:46;23.90;99.90
14008;DHT22;61651;45.508;12.232;2023-07-28T06:13:48;24.00;99.90
14008;DHT22;61651;45.508;12.232;2023-07-28T06:16:52;24.10;99.90
14008;DHT22;61651;45.508;12.232;2023-07-28T06:19:54;24.10;99.90
14008;DHT22;61651;45.508;12.232;2023-07-28T06:22:56;24.30;99.90
14008;DHT22;61651;45.508;12.232;2023-07-28T06:25:58;24.30;99.90
14008;DHT22;61651;45.508;12.232;2023-07-28T06:29:00;24.40;99.90
14008;DHT22;61651;45.508;12.232;2023-07-28T06:32:04;24.50;99.90
14008;DHT22;61651;45.508;12.232;2023-07-28T06:35:07;24.60;99.90
14008;DHT22;61651;45.508;12.232;2023-07-28T06:38:10;24.70;99.90
14008;DHT22;61651;45.508;12.232;2023-07-28T06:41:12;24.90;99.90
14008;DHT22;61651;45.508;12.232;2023-07-28T06:44:14;24.90;99.90
14008;DHT22;61651;45.508;12.232;2023-07-28T06:47:18;24.90;99.90
14008;DHT22;61651;45.508;12.232;2023-07-28T06:50:20;24.90;99.90
14008;DHT22;61651;45.508;12.232;2023-07-28T06:53:22;25.00;99.90
14008;DHT22;61651;45.508;12.232;2023-07-28T06:56:24;25.10;99.90
14008;DHT22;61651;45.508;12.232;2023-07-28T06:59:26;25.10;99.90
14008;DHT22;61651;45.508;12.232;2023-07-28T07:02:30;25.20;99.90
14008;DHT22;61651;45.508;12.232;2023-07-28T07:05:31;25.20;99.90
14008;DHT22;61651;45.508;12.232;2023-07-28T07:08:33;25.30;99.90
14008;DHT22;61651;45.508;12.232;2023-07-28T07:11:36;25.30;99.90
14008;DHT22;61651;45.508;12.232;2023-07-28T07:14:38;25.40;99.90
14008;DHT22;61651;45.508;12.232;2023-07-28T07:17:41;25.50;99.90
14008;DHT22;61651;45.508;12.232;2023-07-28T07:20:43;25.50;99.90
14008;DHT22;61651;45.508;12.232;2023-07-28T07:23:46;25.50;99.90
14008;DHT22;61651;45.508;12.232;2023-07-28T07:26:48;25.50;99.90
14008;DHT22;61651;45.508;12.232;2023-07-28T07:29:51;25.50;99.90
14008;DHT22;61651;45.508;12.232;2023-07-28T07:32:54;25.50;99.90
14008;DHT22;61651;45.508;12.232;2023-07-28T07:35:56;25.60;99.90
14008;DHT22;61651;45.508;12.232;2023-07-28T07:38:59;25.60;99.90
14008;DHT22;61651;45.508;12.232;2023-07-28T07:42:01;25.60;99.90
14008;DHT22;61651;45.508;12.232;2023-07-28T07:45:04;25.60;99.90
14008;DHT22;61651;45.508;12.232;2023-07-28T07:48:07;25.80;99.90
14008;DHT22;61651;45.508;12.232;2023-07-28T07:51:09;25.80;99.90
14008;DHT22;61651;45.508;12.232;2023-07-28T07:54:11;25.70;99.90
14008;DHT22;61651;45.508;12.232;2023-07-28T07:57:16;25.90;99.90
14008;DHT22;61651;45.508;12.232;2023-07-28T08:00:18;26.00;99.90
14008;DHT22;61651;45.508;12.232;2023-07-28T08:03:22;26.10;99.90
14008;DHT22;61651;45.508;12.232;2023-07-28T08:06:24;26.20;99.90
14008;DHT22;61651;45.508;12.232;2023-07-28T08:09:26;26.40;99.90
14008;DHT22;61651;45.508;12.232;2023-07-28T08:12:28;26.40;99.90
14008;DHT22;61651;45.508;12.232;2023-07-28T08:15:30;26.50;99.90
14008;DHT22;61651;45.508;12.232;2023-07-28T08:18:34;26.60;99.90
14008;DHT22;61651;45.508;12.232;2023-07-28T08:21:36;26.70;99.90
14008;DHT22;61651;45.508;12.232;2023-07-28T08:24:38;26.70;99.90
14008;DHT22;61651;45.508;12.232;2023-07-28T08:27:41;26.70;99.90
14008;DHT22;61651;45.508;12.232;2023-07-28T08:30:43;26.90;99.90
14008;DHT22;61651;45.508;12.232;2023-07-28T08:33:46;27.00;99.90
14008;DHT22;61651;45.508;12.232;2023-07-28T08:36:48;27.10;99.90
14008;DHT22;61651;45.508;12.232;2023-07-28T08:39:50;27.20;99.90
14008;DHT22;61651;45.508;12.232;2023-07-28T08:42:53;27.30;99.90
14008;DHT22;61651;45.508;12.232;2023-07-28T08:45:55;27.40;99.90
14008;DHT22;61651;45.508;12.232;2023-07-28T08:48:59;27.50;99.90
14008;DHT22;61651;45.508;12.232;2023-07-28T08:52:02;27.60;99.90
14008;DHT22;61651;45.508;12.232;2023-07-28T08:55:05;27.70;99.90
14008;DHT22;61651;45.508;12.232;2023-07-28T08:58:18;27.90;99.90
14008;DHT22;61651;45.508;12.232;2023-07-28T09:01:23;27.90;99.90
14008;DHT22;61651;45.508;12.232;2023-07-28T09:04:26;28.00;99.90
14008;DHT22;61651;45.508;12.232;2023-07-28T09:07:34;28.00;99.90
14008;DHT22;61651;45.508;12.232;2023-07-28T09:10:42;28.10;99.90
14008;DHT22;61651;45.508;12.232;2023-07-28T09:13:44;28.10;99.90
14008;DHT22;61651;45.508;12.232;2023-07-28T09:16:47;28.30;99.90
14008;DHT22;61651;45.508;12.232;2023-07-28T09:19:51;28.40;99.90
14008;DHT22;61651;45.508;12.232;2023-07-28T09:22:53;28.60;99.90
14008;DHT22;61651;45.508;12.232;2023-07-28T09:25:59;28.80;99.90
14008;DHT22;61651;45.508;12.232;2023-07-28T09:29:11;28.70;99.90
14008;DHT22;61651;45.508;12.232;2023-07-28T09:32:13;28.70;99.90
14008;DHT22;61651;45.508;12.232;2023-07-28T09:35:16;28.80;99.90
14008;DHT22;61651;45.508;12.232;2023-07-28T09:38:19;29.10;99.90
14008;DHT22;61651;45.508;12.232;2023-07-28T09:41:21;29.10;99.90
14008;DHT22;61651;45.508;12.232;2023-07-28T09:44:24;29.30;99.90
14008;DHT22;61651;45.508;12.232;2023-07-28T09:47:26;29.40;99.90
14008;DHT22;61651;45.508;12.232;2023-07-28T09:50:32;29.50;99.90
14008;DHT22;61651;45.508;12.232;2023-07-28T09:53:40;29.80;99.90
14008;DHT22;61651;45.508;12.232;2023-07-28T09:56:46;30.00;99.90
14008;DHT22;61651;45.508;12.232;2023-07-28T09:59:51;30.20;99.90
14008;DHT22;61651;45.508;12.232;2023-07-28T10:02:56;30.40;99.90
14008;DHT22;61651;45.508;12.232;2023-07-28T10:06:00;30.10;99.90
14008;DHT22;61651;45.508;12.232;2023-07-28T10:09:03;30.00;99.90
14008;DHT22;61651;45.508;12.232;2023-07-28T10:12:06;29.90;99.90
14008;DHT22;61651;45.508;12.232;2023-07-28T10:15:20;29.50;99.90
14008;DHT22;61651;45.508;12.232;2023-07-28T10:18:22;29.40;99.90
14008;DHT22;61651;45.508;12.232;2023-07-28T10:21:29;29.70;99.90
14008;DHT22;61651;45.508;12.232;2023-07-28T10:24:52;29.70;99.90
14008;DHT22;61651;45.508;12.232;2023-07-28T10:27:54;29.70;99.90
14008;DHT22;61651;45.508;12.232;2023-07-28T10:30:58;29.70;99.90
14008;DHT22;61651;45.508;12.232;2023-07-28T10:34:00;29.70;99.90
14008;DHT22;61651;45.508;12.232;2023-07-28T10:37:03;29.60;99.90
14008;DHT22;61651;45.508;12.232;2023-07-28T10:40:28;29.20;99.90
14008;DHT22;61651;45.508;12.232;2023-07-28T10:43:31;28.90;99.90
14008;DHT22;61651;45.508;12.232;2023-07-28T10:46:35;28.90;99.90
14008;DHT22;61651;45.508;12.232;2023-07-28T10:49:37;29.10;99.90
14008;DHT22;61651;45.508;12.232;2023-07-28T10:52:41;29.70;99.90
14008;DHT22;61651;45.508;12.232;2023-07-28T10:55:44;30.20;99.90
14008;DHT22;61651;45.508;12.232;2023-07-28T10:58:46;30.50;99.90
14008;DHT22;61651;45.508;12.232;2023-07-28T11:01:48;30.90;99.90
14008;DHT22;61651;45.508;12.232;2023-07-28T11:04:51;31.10;99.90
14008;DHT22;61651;45.508;12.232;2023-07-28T11:07:56;31.30;99.90
14008;DHT22;61651;45.508;12.232;2023-07-28T11:10:58;31.30;99.90
14008;DHT22;61651;45.508;12.232;2023-07-28T11:14:01;31.30;99.90
14008;DHT22;61651;45.508;12.232;2023-07-28T11:17:05;31.40;99.90
14008;DHT22;61651;45.508;12.232;2023-07-28T11:20:14;31.50;99.90
14008;DHT22;61651;45.508;12.232;2023-07-28T11:23:18;31.40;99.90
14008;DHT22;61651;45.508;12.232;2023-07-28T11:26:21;31.40;99.90
14008;DHT22;61651;45.508;12.232;2023-07-28T11:29:24;31.60;99.90
14008;DHT22;61651;45.508;12.232;2023-07-28T11:32:26;31.80;99.90
14008;DHT22;61651;45.508;12.232;2023-07-28T11:35:28;31.70;99.90
14008;DHT22;61651;45.508;12.232;2023-07-28T11:38:31;31.70;99.90
14008;DHT22;61651;45.508;12.232;2023-07-28T11:41:34;31.80;99.90
14008;DHT22;61651;45.508;12.232;2023-07-28T11:44:37;31.80;99.90
14008;DHT22;61651;45.508;12.232;2023-07-28T11:47:39;32.10;99.90
14008;DHT22;61651;45.508;12.232;2023-07-28T11:50:42;32.00;99.90
14008;DHT22;61651;45.508;12.232;2023-07-28T11:53:46;32.10;99.90
14008;DHT22;61651;45.508;12.232;2023-07-28T11:56:50;31.70;99.90
14008;DHT22;61651;45.508;12.232;2023-07-28T11:59:53;31.10;99.90
14008;DHT22;61651;45.508;12.232;2023-07-28T12:03:04;30.70;99.90
14008;DHT22;61651;45.508;12.232;2023-07-28T12:06:06;31.00;99.90
14008;DHT22;61651;45.508;12.232;2023-07-28T12:09:12;31.50;99.90
14008;DHT22;61651;45.508;12.232;2023-07-28T12:12:14;31.80;99.90
14008;DHT22;61651;45.508;12.232;2023-07-28T12:15:22;31.90;99.90
14008;DHT22;61651;45.508;12.232;2023-07-28T12:18:29;31.80;99.90
14008;DHT22;61651;45.508;12.232;2023-07-28T12:21:31;31.60;99.90
14008;DHT22;61651;45.508;12.232;2023-07-28T12:24:35;31.60;99.90
14008;DHT22;61651;45.508;12.232;2023-07-28T12:27:37;31.70;99.90
14008;DHT22;61651;45.508;12.232;2023-07-28T12:30:39;32.20;99.90
14008;DHT22;61651;45.508;12.232;2023-07-28T12:33:42;32.20;99.90
14008;DHT22;61651;45.508;12.232;2023-07-28T12:36:44;32.30;99.90
14008;DHT22;61651;45.508;12.232;2023-07-28T12:39:48;32.40;99.90
14008;DHT22;61651;45.508;12.232;2023-07-28T12:42:50;32.20;99.90
14008;DHT22;61651;45.508;12.232;2023-07-28T12:45:52;31.80;99.90
14008;DHT22;61651;45.508;12.232;2023-07-28T12:48:54;31.40;99.90
14008;DHT22;61651;45.508;12.232;2023-07-28T12:51:57;31.20;99.90
14008;DHT22;61651;45.508;12.232;2023-07-28T12:55:00;30.90;99.90
14008;DHT22;61651;45.508;12.232;2023-07-28T12:58:02;31.30;99.90
14008;DHT22;61651;45.508;12.232;2023-07-28T13:01:04;32.00;99.90
14008;DHT22;61651;45.508;12.232;2023-07-28T13:04:08;32.60;99.90
14008;DHT22;61651;45.508;12.232;2023-07-28T13:07:10;33.10;99.90
14008;DHT22;61651;45.508;12.232;2023-07-28T13:10:14;33.60;99.90
14008;DHT22;61651;45.508;12.232;2023-07-28T13:13:16;33.80;99.90
14008;DHT22;61651;45.508;12.232;2023-07-28T13:16:18;33.60;99.90
14008;DHT22;61651;45.508;12.232;2023-07-28T13:19:20;32.80;99.90
14008;DHT22;61651;45.508;12.232;2023-07-28T13:22:22;32.30;99.90
14008;DHT22;61651;45.508;12.232;2023-07-28T13:25:25;32.20;99.90
14008;DHT22;61651;45.508;12.232;2023-07-28T13:28:27;32.40;99.90
14008;DHT22;61651;45.508;12.232;2023-07-28T13:31:29;32.80;99.90
14008;DHT22;61651;45.508;12.232;2023-07-28T13:34:31;32.20;99.90
14008;DHT22;61651;45.508;12.232;2023-07-28T13:37:33;31.60;99.90
14008;DHT22;61651;45.508;12.232;2023-07-28T13:40:37;31.50;99.90
14008;DHT22;61651;45.508;12.232;2023-07-28T13:43:39;31.60;99.90
14008;DHT22;61651;45.508;12.232;2023-07-28T13:46:41;31.70;99.90
14008;DHT22;61651;45.508;12.232;2023-07-28T13:49:43;31.70;99.90
14008;DHT22;61651;45.508;12.232;2023-07-28T13:52:45;31.60;99.90
14008;DHT22;61651;45.508;12.232;2023-07-28T13:55:49;31.50;99.90
14008;DHT22;61651;45.508;12.232;2023-07-28T13:58:51;31.60;99.90
14008;DHT22;61651;45.508;12.232;2023-07-28T14:01:53;31.80;99.90
14008;DHT22;61651;45.508;12.232;2023-07-28T14:04:56;31.90;99.90
14008;DHT22;61651;45.508;12.232;2023-07-28T14:07:58;31.80;99.90
14008;DHT22;61651;45.508;12.232;2023-07-28T14:11:01;31.80;99.90
14008;DHT22;61651;45.508;12.232;2023-07-28T14:14:03;31.80;99.90
14008;DHT22;61651;45.508;12.232;2023-07-28T14:17:05;31.70;99.90
14008;DHT22;61651;45.508;12.232;2023-07-28T14:20:08;31.60;99.90
14008;DHT22;61651;45.508;12.232;2023-07-28T14:23:24;31.30;99.90
14008;DHT22;61651;45.508;12.232;2023-07-28T14:26:27;31.10;99.90
14008;DHT22;61651;45.508;12.232;2023-07-28T14:29:29;31.00;99.90
14008;DHT22;61651;45.508;12.232;2023-07-28T14:32:31;31.10;99.90
14008;DHT22;61651;45.508;12.232;2023-07-28T14:35:33;31.00;99.90
14008;DHT22;61651;45.508;12.232;2023-07-28T14:38:35;31.00;99.90
14008;DHT22;61651;45.508;12.232;2023-07-28T14:41:39;31.00;99.90
14008;DHT22;61651;45.508;12.232;2023-07-28T14:44:40;31.00;99.90
14008;DHT22;61651;45.508;12.232;2023-07-28T14:47:42;30.90;99.90
14008;DHT22;61651;45.508;12.232;2023-07-28T14:50:44;30.80;99.90
14008;DHT22;61651;45.508;12.232;2023-07-28T14:53:47;31.00;99.90
14008;DHT22;61651;45.508;12.232;2023-07-28T14:56:50;31.50;99.90
14008;DHT22;61651;45.508;12.232;2023-07-28T14:59:53;32.10;99.90
14008;DHT22;61651;45.508;12.232;2023-07-28T15:02:55;32.60;99.90
14008;DHT22;61651;45.508;12.232;2023-07-28T15:05:58;33.10;99.90
14008;DHT22;61651;45.508;12.232;2023-07-28T15:09:00;33.60;99.90
14008;DHT22;61651;45.508;12.232;2023-07-28T15:12:04;33.80;99.90
14008;DHT22;61651;45.508;12.232;2023-07-28T15:15:07;34.10;99.90
14008;DHT22;61651;45.508;12.232;2023-07-28T15:18:10;33.80;99.90
14008;DHT22;61651;45.508;12.232;2023-07-28T15:21:12;34.00;99.90
14008;DHT22;61651;45.508;12.232;2023-07-28T15:24:14;34.20;99.90
14008;DHT22;61651;45.508;12.232;2023-07-28T15:27:20;33.00;99.90
14008;DHT22;61651;45.508;12.232;2023-07-28T15:30:22;32.90;99.90
14008;DHT22;61651;45.508;12.232;2023-07-28T15:33:24;33.10;99.90
14008;DHT22;61651;45.508;12.232;2023-07-28T15:36:29;33.40;99.90
14008;DHT22;61651;45.508;12.232;2023-07-28T15:39:31;33.60;99.90
14008;DHT22;61651;45.508;12.232;2023-07-28T15:42:34;33.80;99.90
14008;DHT22;61651;45.508;12.232;2023-07-28T15:45:36;34.00;99.90
14008;DHT22;61651;45.508;12.232;2023-07-28T15:48:39;34.00;99.90
14008;DHT22;61651;45.508;12.232;2023-07-28T15:51:40;33.80;99.90
14008;DHT22;61651;45.508;12.232;2023-07-28T15:54:42;33.70;99.90
14008;DHT22;61651;45.508;12.232;2023-07-28T15:57:46;33.20;99.90
14008;DHT22;61651;45.508;12.232;2023-07-28T16:00:48;32.40;99.90
14008;DHT22;61651;45.508;12.232;2023-07-28T16:03:52;32.10;99.90
14008;DHT22;61651;45.508;12.232;2023-07-28T16:06:54;31.90;99.90
14008;DHT22;61651;45.508;12.232;2023-07-28T16:09:56;31.60;99.90
14008;DHT22;61651;45.508;12.232;2023-07-28T16:12:59;31.30;99.90
14008;DHT22;61651;45.508;12.232;2023-07-28T16:16:01;31.60;99.90
14008;DHT22;61651;45.508;12.232;2023-07-28T16:19:04;31.70;99.90
14008;DHT22;61651;45.508;12.232;2023-07-28T16:22:06;31.50;99.90
14008;DHT22;61651;45.508;12.232;2023-07-28T16:25:08;31.50;99.90
14008;DHT22;61651;45.508;12.232;2023-07-28T16:28:12;31.40;99.90
14008;DHT22;61651;45.508;12.232;2023-07-28T16:31:14;31.10;99.90
14008;DHT22;61651;45.508;12.232;2023-07-28T16:34:16;30.80;99.90
14008;DHT22;61651;45.508;12.232;2023-07-28T16:37:18;30.70;99.90
14008;DHT22;61651;45.508;12.232;2023-07-28T16:40:20;30.50;99.90
14008;DHT22;61651;45.508;12.232;2023-07-28T16:43:23;30.40;99.90
14008;DHT22;61651;45.508;12.232;2023-07-28T16:46:26;30.40;99.90
14008;DHT22;61651;45.508;12.232;2023-07-28T16:49:28;30.50;99.90
14008;DHT22;61651;45.508;12.232;2023-07-28T16:52:30;30.60;99.90
14008;DHT22;61651;45.508;12.232;2023-07-28T16:55:32;30.60;99.90
14008;DHT22;61651;45.508;12.232;2023-07-28T16:58:35;30.30;99.90
14008;DHT22;61651;45.508;12.232;2023-07-28T17:01:37;29.90;99.90
14008;DHT22;61651;45.508;12.232;2023-07-28T17:04:39;29.90;99.90
14008;DHT22;61651;45.508;12.232;2023-07-28T17:07:41;30.00;99.90
14008;DHT22;61651;45.508;12.232;2023-07-28T17:10:44;29.90;99.90
14008;DHT22;61651;45.508;12.232;2023-07-28T17:13:47;29.80;99.90
14008;DHT22;61651;45.508;12.232;2023-07-28T17:16:49;29.80;99.90
14008;DHT22;61651;45.508;12.232;2023-07-28T17:19:52;29.70;99.90
14008;DHT22;61651;45.508;12.232;2023-07-28T17:22:54;29.40;99.90
14008;DHT22;61651;45.508;12.232;2023-07-28T17:25:56;29.30;99.90
14008;DHT22;61651;45.508;12.232;2023-07-28T17:28:59;29.20;99.90
14008;DHT22;61651;45.508;12.232;2023-07-28T17:32:01;29.40;99.90
14008;DHT22;61651;45.508;12.232;2023-07-28T17:35:04;29.60;99.90
14008;DHT22;61651;45.508;12.232;2023-07-28T17:38:06;29.60;99.90
14008;DHT22;61651;45.508;12.232;2023-07-28T17:41:09;29.60;99.90
14008;DHT22;61651;45.508;12.232;2023-07-28T17:44:12;29.70;99.90
14008;DHT22;61651;45.508;12.232;2023-07-28T17:47:14;29.60;99.90
14008;DHT22;61651;45.508;12.232;2023-07-28T17:50:16;29.70;99.90
14008;DHT22;61651;45.508;12.232;2023-07-28T17:53:19;29.70;99.90
14008;DHT22;61651;45.508;12.232;2023-07-28T17:56:22;29.60;99.90
14008;DHT22;61651;45.508;12.232;2023-07-28T17:59:25;29.60;99.90
14008;DHT22;61651;45.508;12.232;2023-07-28T18:02:27;29.60;99.90
14008;DHT22;61651;45.508;12.232;2023-07-28T18:05:29;29.50;99.90
14008;DHT22;61651;45.508;12.232;2023-07-28T18:08:31;29.50;99.90
14008;DHT22;61651;45.508;12.232;2023-07-28T18:11:33;29.40;99.90
14008;DHT22;61651;45.508;12.232;2023-07-28T18:14:37;29.30;99.90
14008;DHT22;61651;45.508;12.232;2023-07-28T18:17:39;29.30;99.90
14008;DHT22;61651;45.508;12.232;2023-07-28T18:20:41;29.20;99.90
14008;DHT22;61651;45.508;12.232;2023-07-28T18:23:43;29.20;99.90
14008;DHT22;61651;45.508;12.232;2023-07-28T18:26:45;29.20;99.90
14008;DHT22;61651;45.508;12.232;2023-07-28T18:29:49;29.20;99.90
14008;DHT22;61651;45.508;12.232;2023-07-28T18:32:51;29.20;99.90
14008;DHT22;61651;45.508;12.232;2023-07-28T18:35:54;29.10;99.90
14008;DHT22;61651;45.508;12.232;2023-07-28T18:38:56;29.10;99.90
14008;DHT22;61651;45.508;12.232;2023-07-28T18:41:58;29.00;99.90
14008;DHT22;61651;45.508;12.232;2023-07-28T18:45:01;29.00;99.90
14008;DHT22;61651;45.508;12.232;2023-07-28T18:48:03;28.90;99.90
14008;DHT22;61651;45.508;12.232;2023-07-28T18:51:05;28.90;99.90
14008;DHT22;61651;45.508;12.232;2023-07-28T18:54:08;28.80;99.90
14008;DHT22;61651;45.508;12.232;2023-07-28T18:57:10;28.70;99.90